createdAt,value
2018-12-13T06:10:05.200Z,41.70
2018-12-13T06:12:34.757Z,39.60
2018-12-13T06:15:05.674Z,40.30
2018-12-13T06:17:34.904Z,40.50
2018-12-13T06:20:03.967Z,40.60
2018-12-13T06:22:34.656Z,40.60
2018-12-13T06:25:03.546Z,40.80
2018-12-13T06:27:32.704Z,40.70
2018-12-13T06:30:07.510Z,40.70
2018-12-13T06:32:35.320Z,40.70
2018-12-13T06:35:04.420Z,40.60
2018-12-13T06:37:33.139Z,40.70
2018-12-13T06:40:02.692Z,40.60
2018-12-13T06:42:31.984Z,40.60
2018-12-13T06:45:01.327Z,40.70
2018-12-13T06:47:31.031Z,40.90
2018-12-13T06:50:00.811Z,41.20
2018-12-13T06:52:30.097Z,41.60
2018-12-13T06:54:59.621Z,41.80
2018-12-13T06:57:29.396Z,42.30
2018-12-13T07:00:00.319Z,42.40
2018-12-13T07:02:29.355Z,42.60
2018-12-13T07:04:58.923Z,42.50
2018-12-13T07:07:28.784Z,43.20
2018-12-13T07:09:57.628Z,42.50
2018-12-13T07:12:26.652Z,42.50
2018-12-13T07:14:56.129Z,42.40
2018-12-13T07:17:25.237Z,42.40
2018-12-13T07:19:54.045Z,42.30
2018-12-13T07:22:23.228Z,42.20
2018-12-13T07:24:51.948Z,42.20
2018-12-13T07:29:49.680Z,42.10
2018-12-13T07:32:18.540Z,42.10
2018-12-13T07:34:47.961Z,42.00
2018-12-13T07:37:17.048Z,41.90
2018-12-13T07:39:46.545Z,42.00
2018-12-13T07:42:16.029Z,42.10
2018-12-13T07:44:44.840Z,42.10
2018-12-13T07:47:14.496Z,42.40
2018-12-13T07:49:43.199Z,42.40
2018-12-13T07:52:12.001Z,42.20
2018-12-13T07:54:40.711Z,42.20
2018-12-13T07:57:10.368Z,43.10
2018-12-13T07:59:39.214Z,43.20
2018-12-13T08:02:07.968Z,42.80
2018-12-13T08:04:37.744Z,42.20
2018-12-13T08:07:06.471Z,42.60
2018-12-13T08:09:35.330Z,42.20
2018-12-13T08:12:04.183Z,42.10
2018-12-13T08:14:33.101Z,41.60
2018-12-13T08:17:01.624Z,41.50
2018-12-13T08:19:30.927Z,41.40
2018-12-13T08:22:00.083Z,41.20
2018-12-13T08:24:28.938Z,41.10
2018-12-13T08:26:58.144Z,41.10
2018-12-13T08:29:26.972Z,41.00
2018-12-13T08:31:55.981Z,40.90
2018-12-13T08:34:24.444Z,41.00
2018-12-13T08:36:53.703Z,41.00
2018-12-13T08:39:22.404Z,41.00
2018-12-13T08:41:52.496Z,41.00
2018-12-13T08:44:22.583Z,41.30
2018-12-13T08:46:51.332Z,41.20
2018-12-13T08:49:20.322Z,40.90
2018-12-13T08:51:49.976Z,40.90
2018-12-13T08:54:18.722Z,40.70
2018-12-13T08:56:47.761Z,40.30
2018-12-13T08:59:16.519Z,40.10
2018-12-13T09:01:45.800Z,40.00
2018-12-13T09:04:14.480Z,39.80
2018-12-13T09:06:43.343Z,40.10
2018-12-13T09:09:12.209Z,39.60
2018-12-13T09:11:40.927Z,39.20
2018-12-13T09:14:12.291Z,39.30
2018-12-13T09:16:41.325Z,39.00
2018-12-13T09:19:10.336Z,39.40
2018-12-13T09:21:40.282Z,39.20
2018-12-13T09:24:10.088Z,39.30
2018-12-13T09:26:39.171Z,39.60
2018-12-13T09:29:08.696Z,39.10
2018-12-13T09:31:38.689Z,39.10
2018-12-13T09:34:07.476Z,38.90
2018-12-13T09:36:36.598Z,38.90
2018-12-13T09:39:07.223Z,38.80
2018-12-13T09:41:36.263Z,38.50
2018-12-13T09:44:04.987Z,38.80
2018-12-13T09:46:33.837Z,38.60
2018-12-13T09:49:03.105Z,38.60
2018-12-13T09:51:32.695Z,38.50
2018-12-13T09:54:01.835Z,38.80
2018-12-13T09:56:30.656Z,38.70
2018-12-13T09:58:59.859Z,39.10
2018-12-13T10:01:29.057Z,38.90
2018-12-13T10:03:57.917Z,38.80
2018-12-13T10:06:27.030Z,38.90
2018-12-13T10:08:56.028Z,38.90
2018-12-13T10:11:24.908Z,38.90
2018-12-13T10:13:53.685Z,38.60
2018-12-13T10:16:22.412Z,38.40
2018-12-13T10:18:51.437Z,38.30
2018-12-13T10:21:20.151Z,38.20
2018-12-13T10:23:50.783Z,38.00
2018-12-13T10:26:20.405Z,37.90
2018-12-13T10:28:49.111Z,38.00
2018-12-13T10:31:18.256Z,38.10
2018-12-13T10:33:46.996Z,38.00
2018-12-13T10:36:16.105Z,37.90
2018-12-13T10:38:45.233Z,37.80
2018-12-13T10:41:15.924Z,38.20
2018-12-13T10:43:45.144Z,37.70
2018-12-13T10:46:15.322Z,37.60
2018-12-13T10:48:44.040Z,37.80
2018-12-13T10:51:13.240Z,37.90
2018-12-13T10:53:43.452Z,37.60
2018-12-13T10:56:13.038Z,38.10
2018-12-13T10:58:42.176Z,37.80
2018-12-13T11:01:16.952Z,37.80
2018-12-13T11:03:48.200Z,37.90
2018-12-13T11:06:17.259Z,37.70
2018-12-13T11:08:46.515Z,37.80
2018-12-13T11:11:16.998Z,38.10
2018-12-13T11:13:46.093Z,38.40
2018-12-13T11:16:15.251Z,38.10
2018-12-13T11:18:44.792Z,37.70
2018-12-13T11:21:17.430Z,38.00
2018-12-13T11:23:45.023Z,38.20
2018-12-13T11:26:14.139Z,37.90
2018-12-13T11:29:57.107Z,38.00
2018-12-13T11:32:27.328Z,37.80
2018-12-13T11:34:56.036Z,38.20
2018-12-13T11:37:25.140Z,38.20
2018-12-13T11:39:54.035Z,37.90
2018-12-13T11:44:51.964Z,38.40
2018-12-13T11:47:22.352Z,38.40
2018-12-13T11:49:50.104Z,38.30
2018-12-13T11:52:19.892Z,38.50
2018-12-13T11:54:48.747Z,38.60
2018-12-13T11:57:17.882Z,38.50
2018-12-13T11:59:47.697Z,38.50
2018-12-13T12:02:16.504Z,38.10
2018-12-13T12:04:45.360Z,38.30
2018-12-13T12:07:14.242Z,38.50
2018-12-13T12:09:42.741Z,38.90
2018-12-13T12:12:12.040Z,38.40
2018-12-13T12:14:42.788Z,38.60
2018-12-13T12:17:13.332Z,38.50
2018-12-13T12:19:42.447Z,38.50
2018-12-13T12:22:13.012Z,38.50
2018-12-13T12:24:41.759Z,38.40
2018-12-13T12:27:11.084Z,38.40
2018-12-13T12:29:40.184Z,38.70
2018-12-13T12:32:09.577Z,38.50
2018-12-13T12:34:38.779Z,38.70
2018-12-13T12:37:07.951Z,38.70
2018-12-13T12:39:37.055Z,38.70
2018-12-13T12:42:06.308Z,38.70
2018-12-13T12:44:35.524Z,38.80
2018-12-13T12:47:04.375Z,38.60
2018-12-13T12:49:33.205Z,38.70
2018-12-13T12:52:02.697Z,38.40
2018-12-13T12:54:31.464Z,39.00
2018-12-13T12:57:00.266Z,38.30
2018-12-13T12:59:29.714Z,38.40
2018-12-13T13:01:59.995Z,38.70
2018-12-13T13:04:28.732Z,38.90
2018-12-13T13:06:57.975Z,38.70
2018-12-13T13:11:56.119Z,38.60
2018-12-13T13:14:25.712Z,38.80
2018-12-13T13:16:54.709Z,38.70
2018-12-13T13:19:23.551Z,39.20
2018-12-13T13:21:53.104Z,38.80
2018-12-13T13:24:22.251Z,38.70
2018-12-13T13:26:51.925Z,38.60
2018-12-13T13:29:21.159Z,38.50
2018-12-13T13:31:50.687Z,38.70
2018-12-13T13:34:19.775Z,38.70
2018-12-13T13:36:49.035Z,38.80
2018-12-13T13:39:18.211Z,39.10
2018-12-13T13:41:47.139Z,39.10
2018-12-13T13:44:16.359Z,38.90
2018-12-13T13:46:45.560Z,39.00
2018-12-13T13:49:14.737Z,38.90
2018-12-13T13:51:43.616Z,38.90
2018-12-13T13:54:13.000Z,38.80
2018-12-13T13:59:11.057Z,38.80
2018-12-13T14:01:40.048Z,39.30
2018-12-13T14:04:09.068Z,39.10
2018-12-13T14:06:37.851Z,38.90
2018-12-13T14:09:07.732Z,38.90
2018-12-13T14:11:36.778Z,38.90
2018-12-13T14:14:06.159Z,39.00
2018-12-13T14:16:35.771Z,39.20
2018-12-13T14:19:04.568Z,39.00
2018-12-13T14:21:33.331Z,39.00
2018-12-13T14:24:02.881Z,38.90
2018-12-13T14:26:31.925Z,38.80
2018-12-13T14:29:01.553Z,38.80
2018-12-13T14:31:31.125Z,38.30
2018-12-13T14:34:00.529Z,39.10
2018-12-13T14:36:29.747Z,38.80
2018-12-13T14:38:58.515Z,38.90
2018-12-13T14:41:27.702Z,38.80
2018-12-13T14:43:56.812Z,38.70
2018-12-13T14:46:26.100Z,38.60
2018-12-13T14:48:55.118Z,39.20
2018-12-13T14:51:25.028Z,38.70
2018-12-13T14:53:54.295Z,38.50
2018-12-13T14:56:23.260Z,38.50
2018-12-13T14:58:52.396Z,38.60
2018-12-13T15:01:21.856Z,38.70
2018-12-13T15:03:51.250Z,38.70
2018-12-13T15:06:20.317Z,38.50
2018-12-13T15:08:49.943Z,38.50
2018-12-13T15:11:19.143Z,38.80
2018-12-13T15:13:48.383Z,38.80
2018-12-13T15:16:16.953Z,38.50
2018-12-13T15:18:47.096Z,38.60
2018-12-13T15:21:15.815Z,38.80
2018-12-13T15:23:44.855Z,38.50
2018-12-13T15:26:14.152Z,38.70
2018-12-13T15:28:43.930Z,38.70
2018-12-13T15:31:13.592Z,38.50
2018-12-13T15:33:42.761Z,38.70
2018-12-13T15:36:11.964Z,38.60
2018-12-13T15:38:40.684Z,38.80
2018-12-13T15:41:10.313Z,38.50
2018-12-13T15:43:40.077Z,38.60
2018-12-13T15:46:10.280Z,38.50
2018-12-13T15:48:37.981Z,38.60
2018-12-13T15:51:07.860Z,38.70
2018-12-13T15:53:37.048Z,38.70
2018-12-13T15:56:06.563Z,38.60
2018-12-13T15:58:35.844Z,38.80
2018-12-13T16:01:04.975Z,38.70
2018-12-13T16:03:33.991Z,38.90
2018-12-13T16:06:03.406Z,39.40
2018-12-13T16:08:32.936Z,38.70
2018-12-13T16:11:02.479Z,38.90
2018-12-13T16:13:31.203Z,39.00
2018-12-13T16:16:00.133Z,38.80
2018-12-13T16:18:29.667Z,38.70
2018-12-13T16:20:59.175Z,38.70
2018-12-13T16:23:28.299Z,38.70
2018-12-13T16:25:57.709Z,38.70
2018-12-13T16:28:26.844Z,38.70
2018-12-13T16:30:56.069Z,38.60
2018-12-13T16:33:25.540Z,38.60
2018-12-13T16:35:54.688Z,38.70
2018-12-13T16:38:23.691Z,38.70
2018-12-13T16:40:52.800Z,38.60
2018-12-13T16:43:22.257Z,38.80
2018-12-13T16:45:51.417Z,38.70
2018-12-13T16:48:20.427Z,38.70
2018-12-13T16:50:49.863Z,38.60
2018-12-13T16:53:18.973Z,38.70
2018-12-13T16:55:48.095Z,38.70
2018-12-13T16:58:17.109Z,38.80
2018-12-13T17:00:46.620Z,38.70
2018-12-13T17:03:46.778Z,39.00
2018-12-13T17:06:15.780Z,39.50
2018-12-13T17:08:45.208Z,38.90
2018-12-13T17:11:14.488Z,38.90
2018-12-13T17:13:44.020Z,38.90
2018-12-13T17:16:12.699Z,38.90
2018-12-13T17:18:42.123Z,38.80
2018-12-13T17:21:10.943Z,38.80
2018-12-13T17:23:40.411Z,38.70
2018-12-13T17:26:09.785Z,38.80
2018-12-13T17:28:39.229Z,38.80
2018-12-13T17:31:08.381Z,38.70
2018-12-13T17:33:37.924Z,38.90
2018-12-13T17:36:07.420Z,38.80
2018-12-13T17:38:36.415Z,38.70
2018-12-13T17:41:05.515Z,38.90
2018-12-13T17:43:35.082Z,38.80
2018-12-13T17:46:04.487Z,38.80
2018-12-13T17:48:33.687Z,38.70
2018-12-13T17:51:02.754Z,38.80
2018-12-13T17:53:31.442Z,38.70
2018-12-13T17:56:00.135Z,38.70
2018-12-13T17:58:29.142Z,38.70
2018-12-13T18:00:58.624Z,38.90
2018-12-13T18:03:28.047Z,38.80
2018-12-13T18:05:57.539Z,39.00
2018-12-13T18:08:26.849Z,39.10
2018-12-13T18:10:55.534Z,38.80
2018-12-13T18:13:24.933Z,39.00
2018-12-13T18:15:54.436Z,38.80
2018-12-13T18:18:23.823Z,38.70
2018-12-13T18:20:53.061Z,38.70
2018-12-13T18:23:22.512Z,38.70
2018-12-13T18:25:51.619Z,38.70
2018-12-13T18:28:20.752Z,38.90
2018-12-13T18:30:50.164Z,38.90
2018-12-13T18:33:19.222Z,38.90
2018-12-13T18:35:48.625Z,39.20
2018-12-13T18:38:17.618Z,39.00
2018-12-13T18:40:47.067Z,38.80
2018-12-13T18:43:16.445Z,39.00
2018-12-13T18:45:45.158Z,39.50
2018-12-13T18:48:14.658Z,38.90
2018-12-13T18:50:43.348Z,38.80
2018-12-13T18:55:41.243Z,38.60
2018-12-13T18:58:10.229Z,38.50
2018-12-13T19:00:38.978Z,38.70
2018-12-13T19:03:08.080Z,38.70
2018-12-13T19:05:37.231Z,38.60
2018-12-13T19:08:06.641Z,38.50
2018-12-13T19:10:35.427Z,39.30
2018-12-13T19:13:04.527Z,38.70
2018-12-13T19:18:02.427Z,38.90
2018-12-13T19:20:31.692Z,38.70
2018-12-13T19:23:00.795Z,38.60
2018-12-13T19:25:30.171Z,38.60
2018-12-13T19:27:59.624Z,39.30
2018-12-13T19:32:56.901Z,39.70
2018-12-13T19:35:26.417Z,38.60
2018-12-13T19:37:55.100Z,39.10
2018-12-13T19:40:24.257Z,38.50
2018-12-13T19:42:53.147Z,38.60
2018-12-13T19:45:22.695Z,38.60
2018-12-13T19:47:52.128Z,38.60
2018-12-13T19:50:21.502Z,38.50
2018-12-13T19:52:50.973Z,38.70
2018-12-13T19:55:20.367Z,38.60
2018-12-13T19:57:49.410Z,38.80
2018-12-13T20:00:18.096Z,38.70
2018-12-13T20:02:47.288Z,38.70
2018-12-13T20:05:17.288Z,38.70
2018-12-13T20:07:46.048Z,38.70
2018-12-13T20:10:14.772Z,38.60
2018-12-13T20:12:43.454Z,38.70
2018-12-13T20:15:12.866Z,38.70
2018-12-13T20:17:42.242Z,38.60
2018-12-13T20:20:11.224Z,38.60
2018-12-13T20:22:40.863Z,38.70
2018-12-13T20:25:09.920Z,39.10
2018-12-13T20:27:38.640Z,38.90
2018-12-13T20:30:09.017Z,38.80
2018-12-13T20:32:38.035Z,38.60
2018-12-13T20:35:07.416Z,38.60
2018-12-13T20:37:36.866Z,38.70
2018-12-13T20:40:06.039Z,38.60
2018-12-13T20:42:35.567Z,38.50
2018-12-13T20:45:05.704Z,38.80
2018-12-13T20:47:34.752Z,38.60
2018-12-13T20:50:03.947Z,38.50
2018-12-13T20:52:32.624Z,38.50
2018-12-13T20:55:01.595Z,38.60
2018-12-13T20:57:31.095Z,38.50
2018-12-13T21:00:00.496Z,38.50
2018-12-13T21:02:29.872Z,38.70
2018-12-13T21:04:58.560Z,38.80
2018-12-13T21:07:33.835Z,38.80
2018-12-13T21:10:04.070Z,38.70
2018-12-13T21:12:33.260Z,38.70
2018-12-13T21:15:02.334Z,38.70
2018-12-13T21:17:31.520Z,38.70
2018-12-13T21:20:00.698Z,38.60
2018-12-13T21:22:30.111Z,38.60
2018-12-13T21:24:59.294Z,38.60
2018-12-13T21:27:28.779Z,38.70
2018-12-13T21:29:58.201Z,38.50
2018-12-13T21:32:26.876Z,38.90
2018-12-13T21:34:56.267Z,38.80
2018-12-13T21:37:25.672Z,38.90
2018-12-13T21:39:54.348Z,38.80
2018-12-13T21:42:23.767Z,38.70
2018-12-13T21:44:52.948Z,38.80
2018-12-13T21:47:22.512Z,38.80
2018-12-13T21:49:52.072Z,39.00
2018-12-13T21:52:20.778Z,38.90
2018-12-13T21:54:49.759Z,38.90
